Time;durP1;ratioP1;P1;durP2;ratioP2;P2;SDS_P1;SDS_P2;PMS_P1;PMS_P2;Temp;Humidity;BMP_temperature;BMP_pressure;BME280_temperature;BME280_humidity;BME280_pressure;Samples;Min_cycle;Max_cycle;Signal;HPM_P1;HPM_P2
2023/11/02 00:01:49;;;;;;;2.22;1.58;;;;;;;;;;5014204;28;20052;-82
2023/11/02 00:04:16;;;;;;;2.95;1.65;;;;;;;;;;5051864;28;20049;-82
2023/11/02 00:06:49;;;;;;;2.05;1.48;;;;;;;;;;5031953;28;20049;-82
2023/11/02 00:09:40;;;;;;;1.65;1.30;;;;;;;;;;5013631;28;20056;-82
2023/11/02 00:12:11;;;;;;;2.00;1.50;;;;;;;;;;5034585;28;20060;-82
2023/11/02 00:14:45;;;;;;;3.17;1.35;;;;;;;;;;5013166;28;20502;-82
2023/11/02 00:17:56;;;;;;;2.08;1.50;;;;;;;;;;5020542;28;20052;-82
2023/11/02 00:20:34;;;;;;;2.22;1.40;;;;;;;;;;5032438;28;20993;-82
2023/11/02 00:23:03;;;;;;;1.83;1.40;;;;;;;;;;5032542;28;20037;-82
2023/11/02 00:25:50;;;;;;;2.15;1.52;;;;;;;;;;5013741;28;20053;-82
2023/11/02 00:28:20;;;;;;;1.77;1.35;;;;;;;;;;5011193;28;20053;-82
2023/11/02 00:30:50;;;;;;;2.60;1.90;;;;;;;;;;5010098;28;20049;-82
2023/11/02 00:33:21;;;;;;;2.90;1.92;;;;;;;;;;5035823;28;20052;-83
2023/11/02 00:35:50;;;;;;;1.40;1.00;;;;;;;;;;5034749;28;20053;-83
2023/11/02 00:38:19;;;;;;;1.48;1.30;;;;;;;;;;5053243;28;20495;-82
2023/11/02 00:40:46;;;;;;;1.63;1.38;;;;;;;;;;5033740;28;20052;-82
2023/11/02 00:43:13;;;;;;;3.45;1.75;;;;;;;;;;5049727;28;20053;-82
2023/11/02 00:45:42;;;;;;;2.65;1.05;;;;;;;;;;5008729;28;20052;-82
2023/11/02 00:48:17;;;;;;;2.38;1.13;;;;;;;;;;5028274;28;20060;-82
2023/11/02 00:51:24;;;;;;;1.92;1.10;;;;;;;;;;5031438;28;20037;-82
2023/11/02 00:53:52;;;;;;;;;;;;;;;;;;5031379;28;20053;-82
2023/11/02 00:56:25;;;;;;;2.05;0.82;;;;;;;;;;5014723;28;20375;-82
2023/11/02 00:58:53;;;;;;;2.83;1.67;;;;;;;;;;5015130;28;20045;-82
2023/11/02 01:01:22;;;;;;;1.73;1.20;;;;;;;;;;5029415;28;20534;-82
2023/11/02 01:03:56;;;;;;;6.22;1.50;;;;;;;;;;5016363;28;20410;-82
2023/11/02 01:06:30;;;;;;;2.33;1.35;;;;;;;;;;5034666;28;20053;-82
2023/11/02 01:09:02;;;;;;;13.88;1.92;;;;;;;;;;5020144;28;20049;-82
2023/11/02 01:11:32;;;;;;;3.60;1.85;;;;;;;;;;5032132;28;20511;-82
2023/11/02 01:13:59;;;;;;;1.92;1.20;;;;;;;;;;5010316;28;20049;-82
2023/11/02 01:16:28;;;;;;;1.10;0.80;;;;;;;;;;5013443;28;20041;-82
2023/11/02 01:18:57;;;;;;;1.60;1.17;;;;;;;;;;5010983;28;20060;-83
2023/11/02 01:21:30;;;;;;;5.40;1.30;;;;;;;;;;5069604;22;20599;-81
2023/11/02 01:24:03;;;;;;;2.20;1.70;;;;;;;;;;5040382;28;20045;-82
2023/11/02 01:26:58;;;;;;;4.68;1.23;;;;;;;;;;5028524;28;20052;-82
2023/11/02 01:29:30;;;;;;;3.03;1.45;;;;;;;;;;5022938;28;20052;-82
2023/11/02 01:32:03;;;;;;;;;;;;;;;;;;5038860;28;20045;-82
2023/11/02 01:34:32;;;;;;;3.75;1.23;;;;;;;;;;5028545;28;19931;-82
2023/11/02 01:37:02;;;;;;;2.03;1.30;;;;;;;;;;5041197;28;20059;-82
2023/11/02 01:40:03;;;;;;;1.55;1.10;;;;;;;;;;5038131;28;20045;-82
2023/11/02 01:42:42;;;;;;;5.55;1.00;;;;;;;;;;5016662;28;20052;-82
2023/11/02 01:45:18;;;;;;;2.40;1.67;;;;;;;;;;5059158;28;20057;-82
2023/11/02 01:48:00;;;;;;;3.25;1.92;;;;;;;;;;5038671;28;20037;-82
2023/11/02 01:50:36;;;;;;;2.33;1.30;;;;;;;;;;5027334;28;20049;-82
2023/11/02 01:53:21;;;;;;;1.73;1.23;;;;;;;;;;5055628;28;20048;-82
2023/11/02 01:55:59;;;;;;;4.43;1.48;;;;;;;;;;5037737;28;20045;-82
2023/11/02 01:58:31;;;;;;;1.50;0.77;;;;;;;;;;5025727;28;20048;-82
2023/11/02 02:01:01;;;;;;;6.97;1.58;;;;;;;;;;5047782;28;20045;-82
2023/11/02 02:03:33;;;;;;;2.25;0.95;;;;;;;;;;5047551;28;20044;-82
2023/11/02 02:06:10;;;;;;;1.70;1.20;;;;;;;;;;5042123;28;20059;-82
2023/11/02 02:08:46;;;;;;;2.88;2.53;;;;;;;;;;5059927;28;20041;-82
2023/11/02 02:11:24;;;;;;;1.38;1.10;;;;;;;;;;5025210;28;20053;-82
2023/11/02 02:14:00;;;;;;;1.40;1.27;;;;;;;;;;5023560;28;20049;-82
2023/11/02 02:16:36;;;;;;;1.67;1.02;;;;;;;;;;5042259;28;20041;-81
2023/11/02 02:19:15;;;;;;;1.63;1.10;;;;;;;;;;5026595;28;20052;-82
2023/11/02 02:21:51;;;;;;;16.48;1.77;;;;;;;;;;5042057;28;20053;-82
2023/11/02 02:24:24;;;;;;;1.27;0.93;;;;;;;;;;5027922;28;20053;-82
2023/11/02 02:27:06;;;;;;;3.30;1.40;;;;;;;;;;5040637;28;20050;-82
2023/11/02 02:30:01;;;;;;;1.83;1.67;;;;;;;;;;5045952;28;20048;-82
2023/11/02 02:32:45;;;;;;;4.63;1.60;;;;;;;;;;5042794;28;20045;-82
2023/11/02 02:35:16;;;;;;;2.35;1.00;;;;;;;;;;5027905;28;20063;-82
2023/11/02 02:37:50;;;;;;;3.72;1.42;;;;;;;;;;5024962;28;20063;-82
2023/11/02 02:40:19;;;;;;;3.00;1.30;;;;;;;;;;5039414;28;20049;-82
2023/11/02 02:42:49;;;;;;;4.60;1.48;;;;;;;;;;5052813;28;20041;-82
2023/11/02 02:45:18;;;;;;;2.38;1.48;;;;;;;;;;5035225;28;20052;-82
2023/11/02 02:47:46;;;;;;;2.28;1.63;;;;;;;;;;5023997;28;20068;-82
2023/11/02 02:50:18;;;;;;;1.55;1.30;;;;;;;;;;5036089;28;20052;-82
2023/11/02 02:52:46;;;;;;;4.30;1.60;;;;;;;;;;5038856;28;20049;-82
2023/11/02 02:55:16;;;;;;;1.52;1.20;;;;;;;;;;5024032;28;20060;-82
2023/11/02 02:57:46;;;;;;;1.45;1.25;;;;;;;;;;5021844;28;20054;-82
2023/11/02 03:00:16;;;;;;;1.98;1.33;;;;;;;;;;5047118;28;20053;-82
2023/11/02 03:02:44;;;;;;;1.45;1.02;;;;;;;;;;5023037;28;20513;-82
2023/11/02 03:05:14;;;;;;;2.55;1.45;;;;;;;;;;5027562;28;20052;-82
2023/11/02 03:07:47;;;;;;;3.42;1.80;;;;;;;;;;5057785;28;20053;-82
2023/11/02 03:10:18;;;;;;;1.95;1.45;;;;;;;;;;5026471;28;20442;-82
2023/11/02 03:12:49;;;;;;;2.90;1.25;;;;;;;;;;5019425;28;20044;-82
2023/11/02 03:15:17;;;;;;;2.28;1.40;;;;;;;;;;5039549;28;20049;-82
2023/11/02 03:17:57;;;;;;;2.40;1.17;;;;;;;;;;5042257;28;20052;-82
2023/11/02 03:20:25;;;;;;;2.63;1.60;;;;;;;;;;5022842;28;20056;-82
2023/11/02 03:23:04;;;;;;;2.25;1.33;;;;;;;;;;5037575;28;20060;-82
2023/11/02 03:25:42;;;;;;;4.13;1.33;;;;;;;;;;5024717;28;20056;-82
2023/11/02 03:28:19;;;;;;;2.97;1.73;;;;;;;;;;5015453;28;20053;-81
2023/11/02 03:30:55;;;;;;;2.55;1.58;;;;;;;;;;5041144;28;20052;-81
2023/11/02 03:33:32;;;;;;;3.72;1.45;;;;;;;;;;5027484;28;20052;-81
2023/11/02 03:36:05;;;;;;;2.40;1.08;;;;;;;;;;5036115;28;20050;-81
2023/11/02 03:38:58;;;;;;;1.40;0.90;;;;;;;;;;5043318;28;20052;-82
2023/11/02 03:41:40;;;;;;;2.33;1.53;;;;;;;;;;5037486;28;20049;-82
2023/11/02 03:44:14;;;;;;;2.20;1.38;;;;;;;;;;5054739;28;20041;-82
2023/11/02 03:46:46;;;;;;;4.15;1.90;;;;;;;;;;5038912;28;20060;-82
2023/11/02 03:49:19;;;;;;;2.38;1.45;;;;;;;;;;5041252;28;20053;-82
2023/11/02 03:51:58;;;;;;;5.15;1.40;;;;;;;;;;5037894;28;20045;-82
2023/11/02 03:54:37;;;;;;;2.25;1.23;;;;;;;;;;5058498;28;20049;-82
2023/11/02 03:57:13;;;;;;;2.80;1.30;;;;;;;;;;5034391;28;20057;-82
2023/11/02 03:59:47;;;;;;;4.13;1.42;;;;;;;;;;5048165;28;20052;-82
2023/11/02 04:02:20;;;;;;;2.38;1.10;;;;;;;;;;5021558;28;20103;-82
2023/11/02 04:04:56;;;;;;;10.18;1.60;;;;;;;;;;5038778;28;20064;-82
2023/11/02 04:07:30;;;;;;;2.40;1.63;;;;;;;;;;5023076;28;20056;-82
2023/11/02 04:10:05;;;;;;;6.15;1.42;;;;;;;;;;5021855;28;20049;-82
2023/11/02 04:12:45;;;;;;;1.83;1.27;;;;;;;;;;5039852;28;20053;-82
2023/11/02 04:15:15;;;;;;;5.57;1.50;;;;;;;;;;5018767;28;20053;-82
2023/11/02 04:17:43;;;;;;;2.00;1.17;;;;;;;;;;5039188;28;20056;-82
2023/11/02 04:20:11;;;;;;;2.65;0.90;;;;;;;;;;5023994;28;20045;-82
2023/11/02 04:22:39;;;;;;;2.10;0.90;;;;;;;;;;5022403;28;20060;-82
2023/11/02 04:25:08;;;;;;;2.55;1.00;;;;;;;;;;5019051;28;20053;-82
2023/11/02 04:27:38;;;;;;;3.55;1.00;;;;;;;;;;5020257;28;20064;-82
2023/11/02 04:30:08;;;;;;;1.65;1.00;;;;;;;;;;5040802;28;20418;-82
2023/11/02 04:32:38;;;;;;;1.52;1.23;;;;;;;;;;5048322;28;20049;-82
2023/11/02 04:35:06;;;;;;;2.03;1.52;;;;;;;;;;5034759;28;20053;-82
2023/11/02 04:37:34;;;;;;;2.60;1.38;;;;;;;;;;5020331;28;20053;-82
2023/11/02 04:40:01;;;;;;;1.95;1.67;;;;;;;;;;5033782;28;20046;-82
2023/11/02 04:42:30;;;;;;;2.60;1.15;;;;;;;;;;5022855;28;20051;-82
2023/11/02 04:45:00;;;;;;;3.75;1.08;;;;;;;;;;5025347;28;20045;-82
2023/11/02 04:47:29;;;;;;;1.10;0.80;;;;;;;;;;5055401;28;20056;-82
2023/11/02 04:49:58;;;;;;;2.90;1.13;;;;;;;;;;5056624;28;20052;-82
2023/11/02 04:52:35;;;;;;;1.30;0.82;;;;;;;;;;5016041;28;20049;-82
2023/11/02 04:55:06;;;;;;;1.13;0.95;;;;;;;;;;5040747;28;20057;-82
2023/11/02 04:57:35;;;;;;;1.98;1.17;;;;;;;;;;5024343;28;20041;-82
2023/11/02 05:00:03;;;;;;;2.15;0.93;;;;;;;;;;5019532;28;20056;-82
2023/11/02 05:02:31;;;;;;;2.47;1.15;;;;;;;;;;5038689;28;20056;-82
2023/11/02 05:04:59;;;;;;;1.92;1.05;;;;;;;;;;5037670;28;20135;-82
2023/11/02 05:07:30;;;;;;;2.63;1.98;;;;;;;;;;5061009;28;20053;-82
2023/11/02 05:09:57;;;;;;;1.77;1.00;;;;;;;;;;5026026;28;20062;-82
2023/11/02 05:12:24;;;;;;;1.30;1.10;;;;;;;;;;5042186;28;20573;-82
2023/11/02 05:14:56;;;;;;;1.48;1.10;;;;;;;;;;5026461;28;20044;-82
2023/11/02 05:17:25;;;;;;;1.95;1.20;;;;;;;;;;5038420;28;20053;-82
2023/11/02 05:19:55;;;;;;;1.60;1.05;;;;;;;;;;5063111;28;20063;-82
2023/11/02 05:22:24;;;;;;;2.83;1.73;;;;;;;;;;5045624;28;20524;-82
2023/11/02 05:24:53;;;;;;;1.83;1.67;;;;;;;;;;5043157;28;20049;-82
2023/11/02 05:27:25;;;;;;;4.05;2.88;;;;;;;;;;5045174;28;20045;-82
2023/11/02 05:29:52;;;;;;;4.97;4.00;;;;;;;;;;5029989;28;20049;-82
2023/11/02 05:32:21;;;;;;;2.63;2.42;;;;;;;;;;5011800;28;20049;-83
2023/11/02 05:34:48;;;;;;;2.90;2.60;;;;;;;;;;5021932;28;20045;-82
2023/11/02 05:37:15;;;;;;;4.18;3.78;;;;;;;;;;5060838;28;20048;-82
2023/11/02 05:39:42;;;;;;;5.35;1.38;;;;;;;;;;5031107;28;20071;-83
2023/11/02 05:42:10;;;;;;;1.98;1.10;;;;;;;;;;5029263;28;20053;-82
2023/11/02 05:44:37;;;;;;;2.00;1.25;;;;;;;;;;5046413;28;20072;-82
2023/11/02 05:47:06;;;;;;;1.23;1.00;;;;;;;;;;5022221;28;20494;-82
2023/11/02 05:49:35;;;;;;;1.88;1.05;;;;;;;;;;5012346;28;20045;-82
2023/11/02 05:52:02;;;;;;;5.10;1.45;;;;;;;;;;5035344;28;20064;-82
2023/11/02 05:54:30;;;;;;;1.58;1.33;;;;;;;;;;5035517;28;20036;-83
2023/11/02 05:56:57;;;;;;;1.98;1.60;;;;;;;;;;5062233;28;20059;-82
2023/11/02 05:59:25;;;;;;;4.93;2.15;;;;;;;;;;5038970;28;20059;-82
2023/11/02 06:01:54;;;;;;;2.53;1.90;;;;;;;;;;5057771;28;20025;-82
2023/11/02 06:04:21;;;;;;;2.95;1.83;;;;;;;;;;5045438;28;20057;-82
2023/11/02 06:06:50;;;;;;;4.18;2.20;;;;;;;;;;5036257;28;20052;-82
2023/11/02 06:09:20;;;;;;;2.65;2.38;;;;;;;;;;5067324;28;20056;-82
2023/11/02 06:11:47;;;;;;;2.95;2.20;;;;;;;;;;5029614;28;20053;-82
2023/11/02 06:14:14;;;;;;;3.85;3.08;;;;;;;;;;5029823;28;20045;-82
2023/11/02 06:16:44;;;;;;;3.55;1.98;;;;;;;;;;5032982;28;20055;-81
2023/11/02 06:19:11;;;;;;;2.15;1.83;;;;;;;;;;5049119;28;20057;-82
2023/11/02 06:21:38;;;;;;;2.13;1.88;;;;;;;;;;5027649;28;20054;-82
2023/11/02 06:24:09;;;;;;;2.72;1.65;;;;;;;;;;5052389;28;20045;-82
2023/11/02 06:26:36;;;;;;;2.13;1.30;;;;;;;;;;5030492;28;20056;-82
2023/11/02 06:29:04;;;;;;;2.75;1.30;;;;;;;;;;5043049;28;20048;-82
2023/11/02 06:31:31;;;;;;;2.17;1.98;;;;;;;;;;5043267;28;20052;-82
2023/11/02 06:33:58;;;;;;;2.53;1.33;;;;;;;;;;5035708;28;20049;-82
2023/11/02 06:36:28;;;;;;;3.08;1.50;;;;;;;;;;5057892;28;20051;-82
2023/11/02 06:38:55;;;;;;;1.27;1.17;;;;;;;;;;5025128;28;20056;-82
2023/11/02 06:41:24;;;;;;;2.30;1.13;;;;;;;;;;5014783;28;20060;-82
2023/11/02 06:43:51;;;;;;;2.28;1.15;;;;;;;;;;5043028;28;20041;-81
2023/11/02 06:46:23;;;;;;;2.22;1.40;;;;;;;;;;5044579;28;20056;-81
2023/11/02 06:48:50;;;;;;;1.75;1.23;;;;;;;;;;5037022;28;20036;-81
2023/11/02 06:51:21;;;;;;;2.40;1.02;;;;;;;;;;5054267;28;20392;-81
2023/11/02 06:53:48;;;;;;;2.22;1.30;;;;;;;;;;5035647;28;20056;-81
2023/11/02 06:56:15;;;;;;;2.58;1.27;;;;;;;;;;5039373;28;20061;-81
2023/11/02 06:58:44;;;;;;;2.00;1.50;;;;;;;;;;5044150;28;20044;-81
2023/11/02 07:01:13;;;;;;;3.58;1.20;;;;;;;;;;5025592;28;20542;-82
2023/11/02 07:03:46;;;;;;;1.95;1.23;;;;;;;;;;5058877;28;20056;-82
2023/11/02 07:06:13;;;;;;;2.35;1.33;;;;;;;;;;5040009;28;20051;-82
2023/11/02 07:08:40;;;;;;;1.75;1.60;;;;;;;;;;5041768;28;20045;-82
2023/11/02 07:11:08;;;;;;;1.20;1.00;;;;;;;;;;5033877;28;20056;-82
2023/11/02 07:13:35;;;;;;;2.60;1.27;;;;;;;;;;5004984;28;20053;-82
2023/11/02 07:16:08;;;;;;;2.97;2.15;;;;;;;;;;5043575;28;20060;-82
2023/11/02 07:21:42;;;;;;;4.53;1.13;;;;;;;;;;5007084;28;20056;-79
2023/11/02 07:24:12;;;;;;;4.45;1.60;;;;;;;;;;4973929;28;20060;-82
2023/11/02 07:26:39;;;;;;;1.83;1.65;;;;;;;;;;4978132;28;20052;-82
2023/11/02 07:29:08;;;;;;;2.20;1.40;;;;;;;;;;5002720;28;20046;-83
2023/11/02 07:31:41;;;;;;;3.58;1.70;;;;;;;;;;4992892;28;20057;-82
2023/11/02 07:34:11;;;;;;;1.93;1.10;;;;;;;;;;5011691;28;20460;-82
2023/11/02 07:36:38;;;;;;;2.47;2.03;;;;;;;;;;5012487;28;20301;-82
2023/11/02 07:39:08;;;;;;;3.85;1.63;;;;;;;;;;4993718;28;20058;-82
2023/11/02 07:41:38;;;;;;;1.75;1.50;;;;;;;;;;4994394;28;20042;-82
2023/11/02 07:44:05;;;;;;;2.78;1.10;;;;;;;;;;5009325;28;20054;-82
2023/11/02 07:46:33;;;;;;;4.70;1.00;;;;;;;;;;5012718;28;20567;-82
2023/11/02 07:49:06;;;;;;;2.28;1.00;;;;;;;;;;4994025;28;20065;-82
2023/11/02 07:51:33;;;;;;;2.00;1.35;;;;;;;;;;4978351;28;20476;-82
2023/11/02 07:54:03;;;;;;;2.30;1.75;;;;;;;;;;5010633;28;20046;-82
2023/11/02 07:56:31;;;;;;;3.85;1.70;;;;;;;;;;5012832;28;20045;-82
2023/11/02 07:58:58;;;;;;;1.45;1.20;;;;;;;;;;4993069;28;20669;-82
2023/11/02 08:01:25;;;;;;;2.40;1.60;;;;;;;;;;4993859;28;20041;-82
2023/11/02 08:03:52;;;;;;;3.33;2.30;;;;;;;;;;5009824;28;20062;-83
2023/11/02 08:06:24;;;;;;;1.58;1.40;;;;;;;;;;4995172;28;20058;-82
2023/11/02 08:08:54;;;;;;;1.73;1.20;;;;;;;;;;5010212;28;20053;-82
2023/11/02 08:11:23;;;;;;;1.40;1.10;;;;;;;;;;4992494;28;20058;-82
2023/11/02 08:13:56;;;;;;;1.58;1.30;;;;;;;;;;5012129;28;20061;-83
2023/11/02 08:16:25;;;;;;;2.47;1.30;;;;;;;;;;5011455;28;20053;-83
2023/11/02 08:18:54;;;;;;;2.03;1.13;;;;;;;;;;4973997;28;20064;-83
2023/11/02 08:21:27;;;;;;;1.95;1.25;;;;;;;;;;5009360;28;20526;-82
2023/11/02 08:23:54;;;;;;;1.10;0.90;;;;;;;;;;4998505;28;20049;-83
2023/11/02 08:26:23;;;;;;;2.75;1.30;;;;;;;;;;5010844;28;20046;-83
2023/11/02 08:28:55;;;;;;;2.40;1.13;;;;;;;;;;4976231;28;20076;-83
2023/11/02 08:31:23;;;;;;;1.60;1.10;;;;;;;;;;5011263;28;20054;-83
2023/11/02 08:33:53;;;;;;;4.00;1.55;;;;;;;;;;4993459;28;20393;-83
2023/11/02 08:36:23;;;;;;;1.55;1.20;;;;;;;;;;4996527;28;20046;-82
2023/11/02 08:38:52;;;;;;;1.73;1.40;;;;;;;;;;4977174;28;20053;-83
2023/11/02 08:41:22;;;;;;;1.42;1.25;;;;;;;;;;5006499;28;20428;-83
2023/11/02 08:43:50;;;;;;;2.80;1.80;;;;;;;;;;4973841;28;20054;-83
2023/11/02 08:46:22;;;;;;;2.08;1.88;;;;;;;;;;5005707;28;20041;-84
2023/11/02 08:48:51;;;;;;;2.35;1.80;;;;;;;;;;4993253;28;20057;-84
2023/11/02 08:51:19;;;;;;;1.55;1.30;;;;;;;;;;4988271;28;20061;-84
2023/11/02 08:53:47;;;;;;;1.73;1.42;;;;;;;;;;5003421;28;20042;-84
2023/11/02 08:56:19;;;;;;;1.63;1.30;;;;;;;;;;5005606;28;20052;-84
2023/11/02 08:58:47;;;;;;;1.40;1.10;;;;;;;;;;5009575;28;20054;-84
2023/11/02 09:01:19;;;;;;;1.88;1.30;;;;;;;;;;5008334;28;20050;-84
2023/11/02 09:03:51;;;;;;;3.22;1.17;;;;;;;;;;5011077;28;20429;-84
2023/11/02 09:06:22;;;;;;;3.50;1.17;;;;;;;;;;4991861;28;20046;-84
2023/11/02 09:08:55;;;;;;;1.15;0.90;;;;;;;;;;4974954;28;20057;-84
2023/11/02 09:11:24;;;;;;;1.30;1.02;;;;;;;;;;4992688;28;20050;-84
2023/11/02 09:13:51;;;;;;;3.38;1.25;;;;;;;;;;5007778;28;20046;-84
2023/11/02 09:16:19;;;;;;;2.20;1.50;;;;;;;;;;4989319;28;20050;-84
2023/11/02 09:18:46;;;;;;;1.98;1.50;;;;;;;;;;4992480;28;20072;-84
2023/11/02 09:21:18;;;;;;;2.92;2.63;;;;;;;;;;4986298;28;20060;-84
2023/11/02 09:23:48;;;;;;;2.42;1.67;;;;;;;;;;4994067;28;20519;-84
2023/11/02 09:26:15;;;;;;;4.10;1.67;;;;;;;;;;4967440;28;20049;-84
2023/11/02 09:28:46;;;;;;;2.20;1.42;;;;;;;;;;5014866;28;20419;-84
2023/11/02 09:31:14;;;;;;;1.90;1.10;;;;;;;;;;4990083;28;20057;-84
2023/11/02 09:33:42;;;;;;;3.35;2.33;;;;;;;;;;4993306;28;20065;-84
2023/11/02 09:36:09;;;;;;;1.90;1.70;;;;;;;;;;5009812;28;20526;-84
2023/11/02 09:38:37;;;;;;;1.20;1.10;;;;;;;;;;4991052;28;20061;-85
2023/11/02 09:41:04;;;;;;;2.83;1.40;;;;;;;;;;5007750;28;20061;-84
2023/11/02 09:43:32;;;;;;;4.30;1.92;;;;;;;;;;4976735;28;20412;-84
2023/11/02 09:46:01;;;;;;;1.42;1.23;;;;;;;;;;5010031;28;20037;-84
2023/11/02 09:48:30;;;;;;;1.90;1.30;;;;;;;;;;4977159;28;20052;-84
2023/11/02 09:50:58;;;;;;;1.05;0.95;;;;;;;;;;4990106;28;20061;-84
2023/11/02 09:53:28;;;;;;;1.48;0.98;;;;;;;;;;4973551;28;20502;-84
2023/11/02 09:55:55;;;;;;;2.05;1.58;;;;;;;;;;4991897;28;20050;-84
2023/11/02 09:58:23;;;;;;;1.67;1.00;;;;;;;;;;4973392;28;20050;-84
2023/11/02 10:00:54;;;;;;;1.85;1.23;;;;;;;;;;4992912;28;20049;-84
2023/11/02 10:03:23;;;;;;;1.52;1.40;;;;;;;;;;5013358;28;20060;-84
2023/11/02 10:05:52;;;;;;;2.72;1.20;;;;;;;;;;4981956;28;20065;-83
2023/11/02 10:08:22;;;;;;;7.32;3.33;;;;;;;;;;5015751;28;20038;-84
2023/11/02 10:11:09;;;;;;;3.72;1.27;;;;;;;;;;5016128;28;20416;-84
2023/11/02 10:13:37;;;;;;;1.90;1.38;;;;;;;;;;5012895;28;20054;-84
2023/11/02 10:16:06;;;;;;;2.05;1.40;;;;;;;;;;4994272;28;20463;-84
2023/11/02 10:18:41;;;;;;;1.73;1.03;;;;;;;;;;5014595;28;20052;-83
2023/11/02 10:21:08;;;;;;;1.88;1.30;;;;;;;;;;5011250;28;20050;-84
2023/11/02 10:23:47;;;;;;;4.55;1.17;;;;;;;;;;4994948;28;20048;-84
2023/11/02 10:26:15;;;;;;;1.98;1.27;;;;;;;;;;5012491;28;20065;-84
2023/11/02 10:28:44;;;;;;;2.85;1.65;;;;;;;;;;4996066;28;20054;-84
2023/11/02 10:31:23;;;;;;;1.45;1.23;;;;;;;;;;4994261;28;20065;-84
2023/11/02 10:33:54;;;;;;;2.10;1.40;;;;;;;;;;5012742;28;20402;-84
2023/11/02 10:36:24;;;;;;;1.75;1.20;;;;;;;;;;4993525;28;20061;-84
2023/11/02 10:39:10;;;;;;;1.23;1.13;;;;;;;;;;5009370;28;20042;-84
2023/11/02 10:41:46;;;;;;;2.20;1.40;;;;;;;;;;4991739;28;20488;-84
2023/11/02 10:44:18;;;;;;;2.63;1.63;;;;;;;;;;5013457;28;20049;-84
2023/11/02 10:46:46;;;;;;;2.33;1.27;;;;;;;;;;5009648;28;20042;-84
2023/11/02 10:49:20;;;;;;;3.30;1.40;;;;;;;;;;5009746;28;20045;-84
2023/11/02 10:51:49;;;;;;;1.83;1.00;;;;;;;;;;5010867;28;20755;-84
2023/11/02 10:54:21;;;;;;;3.72;1.85;;;;;;;;;;5013239;28;20480;-84
2023/11/02 10:56:54;;;;;;;1.25;1.08;;;;;;;;;;4994024;28;20716;-84
2023/11/02 10:59:22;;;;;;;2.05;1.50;;;;;;;;;;5013604;28;20042;-84
2023/11/02 11:01:50;;;;;;;2.28;1.55;;;;;;;;;;4990989;28;20043;-84
2023/11/02 11:04:18;;;;;;;3.50;2.47;;;;;;;;;;5010863;28;20420;-84
2023/11/02 11:06:49;;;;;;;2.63;1.42;;;;;;;;;;5010508;28;20138;-84
2023/11/02 11:09:17;;;;;;;1.67;1.52;;;;;;;;;;5010623;28;20058;-84
2023/11/02 11:11:44;;;;;;;2.05;1.67;;;;;;;;;;4991643;28;20411;-84
2023/11/02 11:14:14;;;;;;;2.65;1.45;;;;;;;;;;4992958;28;20046;-84
2023/11/02 11:16:43;;;;;;;2.40;1.73;;;;;;;;;;5006733;28;20534;-84
2023/11/02 11:19:13;;;;;;;2.85;1.80;;;;;;;;;;5004914;28;20077;-84
2023/11/02 11:21:42;;;;;;;2.47;2.28;;;;;;;;;;5010606;28;20046;-84
2023/11/02 11:24:16;;;;;;;3.53;2.05;;;;;;;;;;4994437;28;20535;-84
2023/11/02 11:26:47;;;;;;;2.53;2.33;;;;;;;;;;5013060;28;20041;-84
2023/11/02 11:29:39;;;;;;;3.95;3.47;;;;;;;;;;5009380;28;20068;-84
2023/11/02 11:32:33;;;;;;;8.20;4.07;;;;;;;;;;5008433;28;20046;-84
2023/11/02 11:35:14;;;;;;;2.00;1.38;;;;;;;;;;5007019;28;20058;-83
2023/11/02 11:37:49;;;;;;;1.33;1.10;;;;;;;;;;4996293;28;20060;-84
2023/11/02 11:40:36;;;;;;;1.85;1.17;;;;;;;;;;4976502;28;20060;-84
2023/11/02 11:43:12;;;;;;;2.35;1.65;;;;;;;;;;4999253;28;20062;-83
2023/11/02 11:45:49;;;;;;;1.98;1.58;;;;;;;;;;5011643;28;20391;-83
2023/11/02 11:48:35;;;;;;;4.25;1.60;;;;;;;;;;4997569;28;20053;-84
2023/11/02 11:51:39;;;;;;;1.42;1.05;;;;;;;;;;5008378;28;20065;-84
2023/11/02 11:54:10;;;;;;;1.88;1.13;;;;;;;;;;4992875;28;20050;-84
2023/11/02 11:56:39;;;;;;;2.65;1.98;;;;;;;;;;4977566;28;20408;-84
2023/11/02 11:59:06;;;;;;;1.75;1.30;;;;;;;;;;5010521;28;20058;-84
2023/11/02 12:01:37;;;;;;;2.25;1.42;;;;;;;;;;4992839;28;20050;-84
2023/11/02 12:04:07;;;;;;;2.13;1.40;;;;;;;;;;5009131;28;20133;-83
2023/11/02 12:06:39;;;;;;;2.50;1.40;;;;;;;;;;5007938;28;20057;-84
2023/11/02 12:09:11;;;;;;;2.05;1.20;;;;;;;;;;4989960;28;20610;-83
2023/11/02 12:11:41;;;;;;;1.52;0.90;;;;;;;;;;5004983;28;20046;-84
2023/11/02 12:14:17;;;;;;;2.22;1.50;;;;;;;;;;5004971;28;20512;-84
2023/11/02 12:16:44;;;;;;;1.30;1.17;;;;;;;;;;4984319;28;20050;-84
2023/11/02 12:19:12;;;;;;;1.85;0.90;;;;;;;;;;5002056;28;20050;-84
2023/11/02 12:21:41;;;;;;;2.53;2.10;;;;;;;;;;4976063;28;20066;-83
2023/11/02 12:24:11;;;;;;;3.28;1.90;;;;;;;;;;4985086;28;20052;-84
2023/11/02 12:26:43;;;;;;;2.38;1.63;;;;;;;;;;5006231;28;20053;-83
2023/11/02 12:29:12;;;;;;;2.88;2.15;;;;;;;;;;5009753;28;20049;-84
2023/11/02 12:31:41;;;;;;;6.93;4.28;;;;;;;;;;4981098;28;20045;-84
2023/11/02 12:34:12;;;;;;;6.80;5.40;;;;;;;;;;4990009;28;20054;-84
2023/11/02 12:36:39;;;;;;;6.68;5.30;;;;;;;;;;5008606;28;20049;-84
2023/11/02 12:39:11;;;;;;;7.07;5.05;;;;;;;;;;4976427;28;20061;-84
2023/11/02 12:41:39;;;;;;;7.95;5.18;;;;;;;;;;4990846;28;20042;-84
2023/11/02 12:44:09;;;;;;;3.70;3.30;;;;;;;;;;5008003;28;20038;-84
2023/11/02 12:46:41;;;;;;;2.28;1.75;;;;;;;;;;4971606;28;20050;-84
2023/11/02 12:49:19;;;;;;;2.35;1.60;;;;;;;;;;4973283;28;20049;-84
2023/11/02 12:52:04;;;;;;;3.35;1.42;;;;;;;;;;5003617;28;20518;-84
2023/11/02 12:54:32;;;;;;;1.30;1.20;;;;;;;;;;5007499;28;20050;-84
2023/11/02 12:57:00;;;;;;;4.45;2.30;;;;;;;;;;4991594;28;20045;-84
2023/11/02 12:59:36;;;;;;;2.45;1.77;;;;;;;;;;4992971;28;20046;-84
2023/11/02 13:02:05;;;;;;;3.53;2.20;;;;;;;;;;4990042;28;20059;-84
2023/11/02 13:04:48;;;;;;;3.58;1.70;;;;;;;;;;5007578;28;20045;-84
2023/11/02 13:07:22;;;;;;;4.82;2.28;;;;;;;;;;5010568;28;20058;-84
2023/11/02 13:10:01;;;;;;;;;;;;;;;;;;5011741;28;20057;-84
2023/11/02 13:12:34;;;;;;;2.70;2.15;;;;;;;;;;4991604;28;19925;-84
2023/11/02 13:15:09;;;;;;;5.93;1.85;;;;;;;;;;5007859;28;20050;-84
2023/11/02 13:17:40;;;;;;;2.88;2.17;;;;;;;;;;4993424;28;20057;-84
2023/11/02 13:20:09;;;;;;;3.10;1.92;;;;;;;;;;5030267;22;21675;-84
2023/11/02 13:22:37;;;;;;;2.67;2.45;;;;;;;;;;5008697;28;20045;-83
2023/11/02 13:25:05;;;;;;;3.65;3.05;;;;;;;;;;5011403;28;20045;-83
2023/11/02 13:27:34;;;;;;;3.72;3.20;;;;;;;;;;5043135;28;20053;-83
2023/11/02 13:30:01;;;;;;;2.60;1.98;;;;;;;;;;5028860;28;20052;-83
2023/11/02 13:32:30;;;;;;;3.97;3.58;;;;;;;;;;4997784;28;20049;-83
2023/11/02 13:34:58;;;;;;;4.72;2.58;;;;;;;;;;5023670;28;20053;-83
2023/11/02 13:37:26;;;;;;;3.72;3.28;;;;;;;;;;5007898;28;20053;-83
2023/11/02 13:39:54;;;;;;;3.83;3.38;;;;;;;;;;5052313;28;20112;-83
2023/11/02 13:42:21;;;;;;;7.55;4.30;;;;;;;;;;5034937;28;20048;-83
2023/11/02 13:44:48;;;;;;;6.05;3.40;;;;;;;;;;5032352;28;20037;-83
2023/11/02 13:47:18;;;;;;;5.65;4.95;;;;;;;;;;5044569;28;20053;-83
2023/11/02 13:49:46;;;;;;;7.45;5.50;;;;;;;;;;5017004;28;20048;-83
2023/11/02 13:52:14;;;;;;;6.90;5.18;;;;;;;;;;5031158;28;20049;-83
2023/11/02 13:54:43;;;;;;;12.95;5.47;;;;;;;;;;5033252;28;20395;-83
2023/11/02 13:57:13;;;;;;;7.15;4.82;;;;;;;;;;5014135;28;20065;-83
2023/11/02 13:59:48;;;;;;;11.02;4.95;;;;;;;;;;5045034;28;20064;-83
2023/11/02 14:02:17;;;;;;;5.88;5.05;;;;;;;;;;5013371;28;20665;-83
2023/11/02 14:04:46;;;;;;;7.32;5.05;;;;;;;;;;5035447;28;20044;-84
2023/11/02 14:07:16;;;;;;;6.20;5.20;;;;;;;;;;5017811;28;20502;-84
2023/11/02 14:09:43;;;;;;;3.85;3.45;;;;;;;;;;5015269;28;20045;-84
2023/11/02 14:12:22;;;;;;;5.10;2.75;;;;;;;;;;5037024;28;20092;-84
2023/11/02 14:14:50;;;;;;;3.63;3.33;;;;;;;;;;5021534;28;20406;-84
2023/11/02 14:17:19;;;;;;;5.70;3.97;;;;;;;;;;5034866;28;20057;-84
2023/11/02 14:19:48;;;;;;;2.95;2.63;;;;;;;;;;5022003;28;20080;-84
2023/11/02 14:22:18;;;;;;;3.85;1.67;;;;;;;;;;5014322;28;20064;-84
2023/11/02 14:24:48;;;;;;;5.90;2.97;;;;;;;;;;5039245;28;20048;-84
2023/11/02 14:27:15;;;;;;;2.70;2.10;;;;;;;;;;5019963;28;20056;-84
2023/11/02 14:29:43;;;;;;;4.00;3.08;;;;;;;;;;5057247;28;20056;-84
2023/11/02 14:32:13;;;;;;;4.43;2.42;;;;;;;;;;5054442;28;20076;-84
2023/11/02 14:34:42;;;;;;;2.08;1.80;;;;;;;;;;5029668;28;20052;-84
2023/11/02 14:37:11;;;;;;;3.35;2.50;;;;;;;;;;5023258;28;20510;-84
2023/11/02 14:39:41;;;;;;;9.93;6.78;;;;;;;;;;5041479;28;20044;-84
2023/11/02 14:42:08;;;;;;;5.88;4.47;;;;;;;;;;5055860;28;20048;-84
2023/11/02 14:44:40;;;;;;;4.97;3.60;;;;;;;;;;5050130;28;20422;-84
2023/11/02 14:47:12;;;;;;;10.27;7.78;;;;;;;;;;5036914;28;20398;-84
2023/11/02 14:49:39;;;;;;;6.82;5.03;;;;;;;;;;5054666;28;20056;-84
2023/11/02 14:52:07;;;;;;;8.13;4.03;;;;;;;;;;5017908;28;20056;-84
2023/11/02 14:54:37;;;;;;;3.90;3.40;;;;;;;;;;5056068;28;20057;-84
2023/11/02 14:57:05;;;;;;;3.90;3.10;;;;;;;;;;5043326;28;20056;-82
2023/11/02 14:59:32;;;;;;;3.33;2.60;;;;;;;;;;5038193;28;20065;-81
2023/11/02 15:02:01;;;;;;;3.55;3.03;;;;;;;;;;5016360;28;20049;-81
2023/11/02 15:04:31;;;;;;;3.17;1.60;;;;;;;;;;5021746;28;20060;-81
2023/11/02 15:07:01;;;;;;;5.13;3.08;;;;;;;;;;5039535;28;20052;-81
2023/11/02 15:09:30;;;;;;;3.42;2.30;;;;;;;;;;5036210;28;20053;-81
2023/11/02 15:12:01;;;;;;;2.22;2.00;;;;;;;;;;5037237;28;20049;-81